Cape Porpoise, Maine
Current Conditions -  °F | °C
As of 3:35 AM on Sunday 21 Dec 2014 (Local Time) from KSFM Reporting Station
Overcast Overcast  
Wind Chill: 13°   Ceiling: 600
Heat Index: 21°   Visibility: 10mi
Dew Point: 16°   Wind: 7mph
Humidity: 80%   Direction: 330°NNW
Pressure: 30.32"   Gusts: NA
Location:  43.37°N, 70.44°W
Report Text: KSFM 210835Z AUTO 33006KT 10SM OVC006 M06/M09 A3032 RMK AO1
Loading
Personal Weather Stations






























Interactive Weather Map New forecast layout! Learn more

10-Day Weather Forecast

Advertisements
Track Severe Weather on mobile